sensor_id;sensor_type;location;lat;lon;timestamp;temperature;humidity
27544;DHT22;17996;51.056;3.656;2023-12-04T00:00:47;3.60;99.90
27544;DHT22;17996;51.056;3.656;2023-12-04T00:03:13;3.60;99.90
27544;DHT22;17996;51.056;3.656;2023-12-04T00:05:42;3.50;99.90
27544;DHT22;17996;51.056;3.656;2023-12-04T00:08:09;3.50;99.90
27544;DHT22;17996;51.056;3.656;2023-12-04T00:10:34;3.50;99.90
27544;DHT22;17996;51.056;3.656;2023-12-04T00:13:00;3.50;99.90
27544;DHT22;17996;51.056;3.656;2023-12-04T00:15:26;3.50;99.90
27544;DHT22;17996;51.056;3.656;2023-12-04T00:17:52;3.50;99.90
27544;DHT22;17996;51.056;3.656;2023-12-04T00:20:17;3.40;99.90
27544;DHT22;17996;51.056;3.656;2023-12-04T00:22:43;3.40;99.90
27544;DHT22;17996;51.056;3.656;2023-12-04T00:25:09;3.40;99.90
27544;DHT22;17996;51.056;3.656;2023-12-04T00:27:34;3.40;99.90
27544;DHT22;17996;51.056;3.656;2023-12-04T00:30:00;3.30;99.90
27544;DHT22;17996;51.056;3.656;2023-12-04T00:32:29;3.40;99.90
27544;DHT22;17996;51.056;3.656;2023-12-04T00:34:54;3.30;99.90
27544;DHT22;17996;51.056;3.656;2023-12-04T00:37:20;3.30;99.90
27544;DHT22;17996;51.056;3.656;2023-12-04T00:39:46;3.30;99.90
27544;DHT22;17996;51.056;3.656;2023-12-04T00:42:12;3.40;99.90
27544;DHT22;17996;51.056;3.656;2023-12-04T00:44:37;3.40;99.90
27544;DHT22;17996;51.056;3.656;2023-12-04T00:47:03;3.30;99.90
27544;DHT22;17996;51.056;3.656;2023-12-04T00:49:29;3.40;99.90
27544;DHT22;17996;51.056;3.656;2023-12-04T00:51:55;3.40;99.90
27544;DHT22;17996;51.056;3.656;2023-12-04T00:54:20;3.30;99.90
27544;DHT22;17996;51.056;3.656;2023-12-04T00:56:46;3.40;99.90
27544;DHT22;17996;51.056;3.656;2023-12-04T00:59:12;3.40;99.90
27544;DHT22;17996;51.056;3.656;2023-12-04T01:01:38;3.40;99.90
27544;DHT22;17996;51.056;3.656;2023-12-04T01:04:04;3.40;99.90
27544;DHT22;17996;51.056;3.656;2023-12-04T01:06:30;3.60;99.90
27544;DHT22;17996;51.056;3.656;2023-12-04T01:08:56;3.50;99.90
27544;DHT22;17996;51.056;3.656;2023-12-04T01:11:22;3.50;99.90
27544;DHT22;17996;51.056;3.656;2023-12-04T01:13:51;3.50;99.90
27544;DHT22;17996;51.056;3.656;2023-12-04T01:16:16;3.50;99.90
27544;DHT22;17996;51.056;3.656;2023-12-04T01:18:42;3.50;99.90
27544;DHT22;17996;51.056;3.656;2023-12-04T01:21:08;3.50;99.90
27544;DHT22;17996;51.056;3.656;2023-12-04T01:23:35;3.50;99.90
27544;DHT22;17996;51.056;3.656;2023-12-04T01:26:02;3.50;99.90
27544;DHT22;17996;51.056;3.656;2023-12-04T01:28:28;3.50;99.90
27544;DHT22;17996;51.056;3.656;2023-12-04T01:30:53;3.50;99.90
27544;DHT22;17996;51.056;3.656;2023-12-04T01:33:19;3.50;99.90
27544;DHT22;17996;51.056;3.656;2023-12-04T01:35:45;3.50;99.90
27544;DHT22;17996;51.056;3.656;2023-12-04T01:38:11;3.50;99.90
27544;DHT22;17996;51.056;3.656;2023-12-04T01:40:37;3.50;99.90
27544;DHT22;17996;51.056;3.656;2023-12-04T01:43:02;3.50;99.90
27544;DHT22;17996;51.056;3.656;2023-12-04T01:45:28;3.50;99.90
27544;DHT22;17996;51.056;3.656;2023-12-04T01:47:54;3.60;99.90
27544;DHT22;17996;51.056;3.656;2023-12-04T01:50:20;3.60;99.90
27544;DHT22;17996;51.056;3.656;2023-12-04T01:52:46;3.60;99.90
27544;DHT22;17996;51.056;3.656;2023-12-04T01:55:13;3.60;99.90
27544;DHT22;17996;51.056;3.656;2023-12-04T01:57:40;3.60;99.90
27544;DHT22;17996;51.056;3.656;2023-12-04T02:00:06;3.50;99.90
27544;DHT22;17996;51.056;3.656;2023-12-04T02:02:41;3.60;99.90
27544;DHT22;17996;51.056;3.656;2023-12-04T02:05:11;3.60;99.90
27544;DHT22;17996;51.056;3.656;2023-12-04T02:07:40;3.60;99.90
27544;DHT22;17996;51.056;3.656;2023-12-04T02:10:07;3.60;99.90
27544;DHT22;17996;51.056;3.656;2023-12-04T02:12:32;3.60;99.90
27544;DHT22;17996;51.056;3.656;2023-12-04T02:14:58;3.60;99.90
27544;DHT22;17996;51.056;3.656;2023-12-04T02:17:26;3.60;99.90
27544;DHT22;17996;51.056;3.656;2023-12-04T02:19:52;3.60;99.90
27544;DHT22;17996;51.056;3.656;2023-12-04T02:22:18;3.60;99.90
27544;DHT22;17996;51.056;3.656;2023-12-04T02:24:46;3.60;99.90
27544;DHT22;17996;51.056;3.656;2023-12-04T02:27:22;3.60;99.90
27544;DHT22;17996;51.056;3.656;2023-12-04T02:30:11;3.60;99.90
27544;DHT22;17996;51.056;3.656;2023-12-04T02:32:42;3.60;99.90
27544;DHT22;17996;51.056;3.656;2023-12-04T02:35:10;3.60;99.90
27544;DHT22;17996;51.056;3.656;2023-12-04T02:37:37;3.50;99.90
27544;DHT22;17996;51.056;3.656;2023-12-04T02:40:04;3.50;99.90
27544;DHT22;17996;51.056;3.656;2023-12-04T02:42:32;3.60;99.90
27544;DHT22;17996;51.056;3.656;2023-12-04T02:44:58;3.60;99.90
27544;DHT22;17996;51.056;3.656;2023-12-04T02:47:25;3.60;99.90
27544;DHT22;17996;51.056;3.656;2023-12-04T02:49:50;3.60;99.90
27544;DHT22;17996;51.056;3.656;2023-12-04T02:52:16;3.60;99.90
27544;DHT22;17996;51.056;3.656;2023-12-04T02:54:42;3.60;99.90
27544;DHT22;17996;51.056;3.656;2023-12-04T02:57:08;3.60;99.90
27544;DHT22;17996;51.056;3.656;2023-12-04T02:59:34;3.60;99.90
27544;DHT22;17996;51.056;3.656;2023-12-04T03:01:59;3.70;99.90
27544;DHT22;17996;51.056;3.656;2023-12-04T03:04:27;3.70;99.90
27544;DHT22;17996;51.056;3.656;2023-12-04T03:06:53;3.60;99.90
27544;DHT22;17996;51.056;3.656;2023-12-04T03:09:19;3.70;99.90
27544;DHT22;17996;51.056;3.656;2023-12-04T03:11:45;3.70;99.90
27544;DHT22;17996;51.056;3.656;2023-12-04T03:14:10;3.70;99.90
27544;DHT22;17996;51.056;3.656;2023-12-04T03:16:36;3.70;99.90
27544;DHT22;17996;51.056;3.656;2023-12-04T03:19:02;3.70;99.90
27544;DHT22;17996;51.056;3.656;2023-12-04T03:21:29;3.70;99.90
27544;DHT22;17996;51.056;3.656;2023-12-04T03:23:55;3.70;99.90
27544;DHT22;17996;51.056;3.656;2023-12-04T03:26:20;3.70;99.90
27544;DHT22;17996;51.056;3.656;2023-12-04T03:28:46;3.70;99.90
27544;DHT22;17996;51.056;3.656;2023-12-04T03:31:12;3.70;99.90
27544;DHT22;17996;51.056;3.656;2023-12-04T03:33:38;3.70;99.90
27544;DHT22;17996;51.056;3.656;2023-12-04T03:36:04;3.70;99.90
27544;DHT22;17996;51.056;3.656;2023-12-04T03:38:30;3.70;99.90
27544;DHT22;17996;51.056;3.656;2023-12-04T03:40:55;3.70;99.90
27544;DHT22;17996;51.056;3.656;2023-12-04T03:43:21;3.70;99.90
27544;DHT22;17996;51.056;3.656;2023-12-04T03:45:47;3.80;99.90
27544;DHT22;17996;51.056;3.656;2023-12-04T03:48:13;3.80;99.90
27544;DHT22;17996;51.056;3.656;2023-12-04T03:50:39;3.80;99.90
27544;DHT22;17996;51.056;3.656;2023-12-04T03:53:04;3.80;99.90
27544;DHT22;17996;51.056;3.656;2023-12-04T03:55:30;3.80;99.90
27544;DHT22;17996;51.056;3.656;2023-12-04T03:57:57;3.80;99.90
27544;DHT22;17996;51.056;3.656;2023-12-04T04:00:23;3.80;99.90
27544;DHT22;17996;51.056;3.656;2023-12-04T04:02:49;3.90;99.90
27544;DHT22;17996;51.056;3.656;2023-12-04T04:05:15;3.90;99.90
27544;DHT22;17996;51.056;3.656;2023-12-04T04:07:41;3.90;99.90
27544;DHT22;17996;51.056;3.656;2023-12-04T04:10:07;3.90;99.90
27544;DHT22;17996;51.056;3.656;2023-12-04T04:12:33;3.90;99.90
27544;DHT22;17996;51.056;3.656;2023-12-04T04:14:59;3.90;99.90
27544;DHT22;17996;51.056;3.656;2023-12-04T04:17:25;4.00;99.90
27544;DHT22;17996;51.056;3.656;2023-12-04T04:19:54;4.00;99.90
27544;DHT22;17996;51.056;3.656;2023-12-04T04:22:21;4.00;99.90
27544;DHT22;17996;51.056;3.656;2023-12-04T04:24:47;4.00;99.90
27544;DHT22;17996;51.056;3.656;2023-12-04T04:27:13;4.00;99.90
27544;DHT22;17996;51.056;3.656;2023-12-04T04:29:39;4.00;99.90
27544;DHT22;17996;51.056;3.656;2023-12-04T04:32:05;4.00;99.90
27544;DHT22;17996;51.056;3.656;2023-12-04T04:34:31;4.00;99.90
27544;DHT22;17996;51.056;3.656;2023-12-04T04:36:57;4.00;99.90
27544;DHT22;17996;51.056;3.656;2023-12-04T04:39:22;4.00;99.90
27544;DHT22;17996;51.056;3.656;2023-12-04T04:41:48;4.10;99.90
27544;DHT22;17996;51.056;3.656;2023-12-04T04:44:14;4.10;99.90
27544;DHT22;17996;51.056;3.656;2023-12-04T04:46:40;4.10;99.90
27544;DHT22;17996;51.056;3.656;2023-12-04T04:49:06;4.10;99.90
27544;DHT22;17996;51.056;3.656;2023-12-04T04:51:34;4.10;99.90
27544;DHT22;17996;51.056;3.656;2023-12-04T04:54:01;4.10;99.90
27544;DHT22;17996;51.056;3.656;2023-12-04T04:56:27;4.10;99.90
27544;DHT22;17996;51.056;3.656;2023-12-04T04:58:53;4.10;99.90
27544;DHT22;17996;51.056;3.656;2023-12-04T05:01:18;4.20;99.90
27544;DHT22;17996;51.056;3.656;2023-12-04T05:03:44;4.10;99.90
27544;DHT22;17996;51.056;3.656;2023-12-04T05:06:10;4.20;99.90
27544;DHT22;17996;51.056;3.656;2023-12-04T05:08:36;4.20;99.90
27544;DHT22;17996;51.056;3.656;2023-12-04T05:11:04;4.10;99.90
27544;DHT22;17996;51.056;3.656;2023-12-04T05:13:30;4.20;99.90
27544;DHT22;17996;51.056;3.656;2023-12-04T05:15:56;4.20;99.90
27544;DHT22;17996;51.056;3.656;2023-12-04T05:18:21;4.20;99.90
27544;DHT22;17996;51.056;3.656;2023-12-04T05:20:47;4.20;99.90
27544;DHT22;17996;51.056;3.656;2023-12-04T05:23:13;4.20;99.90
27544;DHT22;17996;51.056;3.656;2023-12-04T05:25:38;4.20;99.90
27544;DHT22;17996;51.056;3.656;2023-12-04T05:28:04;4.20;99.90
27544;DHT22;17996;51.056;3.656;2023-12-04T05:30:30;4.20;99.90
27544;DHT22;17996;51.056;3.656;2023-12-04T05:32:56;4.20;99.90
27544;DHT22;17996;51.056;3.656;2023-12-04T05:35:22;4.20;99.90
27544;DHT22;17996;51.056;3.656;2023-12-04T05:37:48;4.20;99.90
27544;DHT22;17996;51.056;3.656;2023-12-04T05:40:14;4.20;99.90
27544;DHT22;17996;51.056;3.656;2023-12-04T05:42:40;4.20;99.90
27544;DHT22;17996;51.056;3.656;2023-12-04T05:45:06;4.20;99.90
27544;DHT22;17996;51.056;3.656;2023-12-04T05:47:33;4.20;99.90
27544;DHT22;17996;51.056;3.656;2023-12-04T05:50:00;4.20;99.90
27544;DHT22;17996;51.056;3.656;2023-12-04T05:52:26;4.20;99.90
27544;DHT22;17996;51.056;3.656;2023-12-04T05:54:51;4.30;99.90
27544;DHT22;17996;51.056;3.656;2023-12-04T05:57:17;4.30;99.90
27544;DHT22;17996;51.056;3.656;2023-12-04T05:59:43;4.30;99.90
27544;DHT22;17996;51.056;3.656;2023-12-04T06:02:09;4.30;99.90
27544;DHT22;17996;51.056;3.656;2023-12-04T06:04:35;4.30;99.90
27544;DHT22;17996;51.056;3.656;2023-12-04T06:07:01;4.30;99.90
27544;DHT22;17996;51.056;3.656;2023-12-04T06:09:26;4.30;99.90
27544;DHT22;17996;51.056;3.656;2023-12-04T06:11:52;4.30;99.90
27544;DHT22;17996;51.056;3.656;2023-12-04T06:14:18;4.30;99.90
27544;DHT22;17996;51.056;3.656;2023-12-04T06:16:44;4.30;99.90
27544;DHT22;17996;51.056;3.656;2023-12-04T06:19:09;4.30;99.90
27544;DHT22;17996;51.056;3.656;2023-12-04T06:21:35;4.30;99.90
27544;DHT22;17996;51.056;3.656;2023-12-04T06:24:01;4.30;99.90
27544;DHT22;17996;51.056;3.656;2023-12-04T06:26:27;4.40;99.90
27544;DHT22;17996;51.056;3.656;2023-12-04T06:28:53;4.30;99.90
27544;DHT22;17996;51.056;3.656;2023-12-04T06:31:19;4.30;99.90
27544;DHT22;17996;51.056;3.656;2023-12-04T06:33:45;4.30;99.90
27544;DHT22;17996;51.056;3.656;2023-12-04T06:36:12;4.30;99.90
27544;DHT22;17996;51.056;3.656;2023-12-04T06:38:40;4.30;99.90
27544;DHT22;17996;51.056;3.656;2023-12-04T06:41:07;4.30;99.90
27544;DHT22;17996;51.056;3.656;2023-12-04T06:43:33;4.30;99.90
27544;DHT22;17996;51.056;3.656;2023-12-04T06:45:59;4.40;99.90
27544;DHT22;17996;51.056;3.656;2023-12-04T06:48:25;4.30;99.90
27544;DHT22;17996;51.056;3.656;2023-12-04T06:50:51;4.30;99.90
27544;DHT22;17996;51.056;3.656;2023-12-04T06:53:17;4.30;99.90
27544;DHT22;17996;51.056;3.656;2023-12-04T06:55:43;4.30;99.90
27544;DHT22;17996;51.056;3.656;2023-12-04T06:58:09;4.40;99.90
27544;DHT22;17996;51.056;3.656;2023-12-04T07:00:35;4.40;99.90
27544;DHT22;17996;51.056;3.656;2023-12-04T07:03:01;4.40;99.90
27544;DHT22;17996;51.056;3.656;2023-12-04T07:05:27;4.40;99.90
27544;DHT22;17996;51.056;3.656;2023-12-04T07:07:52;4.40;99.90
27544;DHT22;17996;51.056;3.656;2023-12-04T07:10:18;4.40;99.90
27544;DHT22;17996;51.056;3.656;2023-12-04T07:12:44;4.40;99.90
27544;DHT22;17996;51.056;3.656;2023-12-04T07:15:11;4.40;99.90
27544;DHT22;17996;51.056;3.656;2023-12-04T07:17:37;4.40;99.90
27544;DHT22;17996;51.056;3.656;2023-12-04T07:20:04;4.40;99.90
27544;DHT22;17996;51.056;3.656;2023-12-04T07:22:33;4.40;99.90
27544;DHT22;17996;51.056;3.656;2023-12-04T07:24:59;4.30;99.90
27544;DHT22;17996;51.056;3.656;2023-12-04T07:27:25;4.40;99.90
27544;DHT22;17996;51.056;3.656;2023-12-04T07:29:51;4.40;99.90
27544;DHT22;17996;51.056;3.656;2023-12-04T07:32:17;4.40;99.90
27544;DHT22;17996;51.056;3.656;2023-12-04T07:34:45;4.40;99.90
27544;DHT22;17996;51.056;3.656;2023-12-04T07:37:11;4.40;99.90
27544;DHT22;17996;51.056;3.656;2023-12-04T07:39:37;4.40;99.90
27544;DHT22;17996;51.056;3.656;2023-12-04T07:42:03;4.40;99.90
27544;DHT22;17996;51.056;3.656;2023-12-04T07:44:29;4.40;99.90
27544;DHT22;17996;51.056;3.656;2023-12-04T07:46:54;4.40;99.90
27544;DHT22;17996;51.056;3.656;2023-12-04T07:49:20;4.40;99.90
27544;DHT22;17996;51.056;3.656;2023-12-04T07:51:46;4.40;99.90
27544;DHT22;17996;51.056;3.656;2023-12-04T07:54:11;4.40;99.90
27544;DHT22;17996;51.056;3.656;2023-12-04T07:56:37;4.40;99.90
27544;DHT22;17996;51.056;3.656;2023-12-04T07:59:03;4.40;99.90
27544;DHT22;17996;51.056;3.656;2023-12-04T08:01:29;4.40;99.90
27544;DHT22;17996;51.056;3.656;2023-12-04T08:03:54;4.40;99.90
27544;DHT22;17996;51.056;3.656;2023-12-04T08:06:20;4.40;99.90
27544;DHT22;17996;51.056;3.656;2023-12-04T08:08:46;4.40;99.90
27544;DHT22;17996;51.056;3.656;2023-12-04T08:11:12;4.40;99.90
27544;DHT22;17996;51.056;3.656;2023-12-04T08:13:38;4.40;99.90
27544;DHT22;17996;51.056;3.656;2023-12-04T08:16:05;4.40;99.90
27544;DHT22;17996;51.056;3.656;2023-12-04T08:18:31;4.40;99.90
27544;DHT22;17996;51.056;3.656;2023-12-04T08:21:00;4.40;99.90
27544;DHT22;17996;51.056;3.656;2023-12-04T08:23:25;4.40;99.90
27544;DHT22;17996;51.056;3.656;2023-12-04T08:25:52;4.40;99.90
27544;DHT22;17996;51.056;3.656;2023-12-04T08:28:18;4.50;99.90
27544;DHT22;17996;51.056;3.656;2023-12-04T08:30:45;4.50;99.90
27544;DHT22;17996;51.056;3.656;2023-12-04T08:33:11;4.50;99.90
27544;DHT22;17996;51.056;3.656;2023-12-04T08:35:36;4.60;99.90
27544;DHT22;17996;51.056;3.656;2023-12-04T08:38:02;4.60;99.90
27544;DHT22;17996;51.056;3.656;2023-12-04T08:40:28;4.60;99.90
27544;DHT22;17996;51.056;3.656;2023-12-04T08:42:54;4.60;99.90
27544;DHT22;17996;51.056;3.656;2023-12-04T08:45:19;4.60;99.90
27544;DHT22;17996;51.056;3.656;2023-12-04T08:47:45;4.60;99.90
27544;DHT22;17996;51.056;3.656;2023-12-04T08:50:11;4.60;99.90
27544;DHT22;17996;51.056;3.656;2023-12-04T08:52:37;4.60;99.90
27544;DHT22;17996;51.056;3.656;2023-12-04T08:55:05;4.60;99.90
27544;DHT22;17996;51.056;3.656;2023-12-04T08:57:31;4.70;99.90
27544;DHT22;17996;51.056;3.656;2023-12-04T08:59:57;4.70;99.90
27544;DHT22;17996;51.056;3.656;2023-12-04T09:02:23;4.80;99.90
27544;DHT22;17996;51.056;3.656;2023-12-04T09:04:48;4.80;99.90
27544;DHT22;17996;51.056;3.656;2023-12-04T09:07:14;4.80;99.90
27544;DHT22;17996;51.056;3.656;2023-12-04T09:09:40;4.80;99.90
27544;DHT22;17996;51.056;3.656;2023-12-04T09:12:06;4.80;99.90
27544;DHT22;17996;51.056;3.656;2023-12-04T09:14:33;4.70;99.90
27544;DHT22;17996;51.056;3.656;2023-12-04T09:16:58;4.80;99.90
27544;DHT22;17996;51.056;3.656;2023-12-04T09:19:24;4.70;99.90
27544;DHT22;17996;51.056;3.656;2023-12-04T09:21:50;4.70;99.90
27544;DHT22;17996;51.056;3.656;2023-12-04T09:24:16;4.80;99.90
27544;DHT22;17996;51.056;3.656;2023-12-04T09:26:42;4.80;99.90
27544;DHT22;17996;51.056;3.656;2023-12-04T09:29:11;4.80;99.90
27544;DHT22;17996;51.056;3.656;2023-12-04T09:31:38;4.90;99.90
27544;DHT22;17996;51.056;3.656;2023-12-04T09:34:04;4.90;99.90
27544;DHT22;17996;51.056;3.656;2023-12-04T09:36:29;4.90;99.90
27544;DHT22;17996;51.056;3.656;2023-12-04T09:38:55;4.80;99.90
27544;DHT22;17996;51.056;3.656;2023-12-04T09:41:21;4.90;99.90
27544;DHT22;17996;51.056;3.656;2023-12-04T09:43:47;4.80;99.90
27544;DHT22;17996;51.056;3.656;2023-12-04T09:46:14;4.80;99.90
27544;DHT22;17996;51.056;3.656;2023-12-04T09:48:43;4.90;99.90
27544;DHT22;17996;51.056;3.656;2023-12-04T09:51:09;4.90;99.90
27544;DHT22;17996;51.056;3.656;2023-12-04T09:53:36;4.90;99.90
27544;DHT22;17996;51.056;3.656;2023-12-04T09:56:03;5.00;99.90
27544;DHT22;17996;51.056;3.656;2023-12-04T09:58:30;4.90;99.90
27544;DHT22;17996;51.056;3.656;2023-12-04T10:00:59;5.00;99.90
27544;DHT22;17996;51.056;3.656;2023-12-04T10:03:26;4.90;99.90
27544;DHT22;17996;51.056;3.656;2023-12-04T10:05:53;4.90;99.90
27544;DHT22;17996;51.056;3.656;2023-12-04T10:08:19;4.90;99.90
27544;DHT22;17996;51.056;3.656;2023-12-04T10:10:45;5.00;99.90
27544;DHT22;17996;51.056;3.656;2023-12-04T10:13:11;5.00;99.90
27544;DHT22;17996;51.056;3.656;2023-12-04T10:15:50;5.00;99.90
27544;DHT22;17996;51.056;3.656;2023-12-04T10:18:26;5.10;99.90
27544;DHT22;17996;51.056;3.656;2023-12-04T10:20:56;5.10;99.90
27544;DHT22;17996;51.056;3.656;2023-12-04T10:23:23;5.10;99.90
27544;DHT22;17996;51.056;3.656;2023-12-04T10:26:01;5.00;99.90
27544;DHT22;17996;51.056;3.656;2023-12-04T10:28:28;5.00;99.90
27544;DHT22;17996;51.056;3.656;2023-12-04T10:30:53;5.10;99.90
27544;DHT22;17996;51.056;3.656;2023-12-04T10:33:20;5.00;99.90
27544;DHT22;17996;51.056;3.656;2023-12-04T10:35:47;5.10;99.90
27544;DHT22;17996;51.056;3.656;2023-12-04T10:38:12;5.10;99.90
27544;DHT22;17996;51.056;3.656;2023-12-04T10:40:40;5.10;99.90
27544;DHT22;17996;51.056;3.656;2023-12-04T10:43:19;5.10;99.90
27544;DHT22;17996;51.056;3.656;2023-12-04T10:45:46;5.20;99.90
27544;DHT22;17996;51.056;3.656;2023-12-04T10:48:14;5.30;99.90
27544;DHT22;17996;51.056;3.656;2023-12-04T10:50:42;5.30;99.90
27544;DHT22;17996;51.056;3.656;2023-12-04T10:53:10;5.30;99.90
27544;DHT22;17996;51.056;3.656;2023-12-04T10:55:37;5.30;99.90
27544;DHT22;17996;51.056;3.656;2023-12-04T10:58:09;5.30;99.90
27544;DHT22;17996;51.056;3.656;2023-12-04T11:00:47;5.30;99.90
27544;DHT22;17996;51.056;3.656;2023-12-04T11:03:20;5.30;99.90
27544;DHT22;17996;51.056;3.656;2023-12-04T11:05:53;5.30;99.90
27544;DHT22;17996;51.056;3.656;2023-12-04T11:08:22;5.20;99.90
27544;DHT22;17996;51.056;3.656;2023-12-04T11:11:05;5.20;99.90
27544;DHT22;17996;51.056;3.656;2023-12-04T11:13:37;5.20;99.90
27544;DHT22;17996;51.056;3.656;2023-12-04T11:16:32;5.20;99.90
27544;DHT22;17996;51.056;3.656;2023-12-04T11:21:45;5.20;99.90
27544;DHT22;17996;51.056;3.656;2023-12-04T11:24:14;5.10;99.90
27544;DHT22;17996;51.056;3.656;2023-12-04T11:26:41;5.20;99.90
27544;DHT22;17996;51.056;3.656;2023-12-04T11:29:08;5.20;99.90
27544;DHT22;17996;51.056;3.656;2023-12-04T11:31:36;5.20;99.90
27544;DHT22;17996;51.056;3.656;2023-12-04T11:34:02;5.20;99.90
27544;DHT22;17996;51.056;3.656;2023-12-04T11:36:29;5.20;99.90
27544;DHT22;17996;51.056;3.656;2023-12-04T11:38:55;5.20;99.90
27544;DHT22;17996;51.056;3.656;2023-12-04T11:41:23;5.30;99.90
27544;DHT22;17996;51.056;3.656;2023-12-04T11:43:50;5.30;99.90
27544;DHT22;17996;51.056;3.656;2023-12-04T11:46:21;5.40;99.90
27544;DHT22;17996;51.056;3.656;2023-12-04T11:49:27;5.40;99.90
27544;DHT22;17996;51.056;3.656;2023-12-04T11:54:09;5.40;99.90
27544;DHT22;17996;51.056;3.656;2023-12-04T11:56:35;5.40;99.90
27544;DHT22;17996;51.056;3.656;2023-12-04T11:59:06;5.40;99.90
27544;DHT22;17996;51.056;3.656;2023-12-04T12:01:38;5.50;99.90
27544;DHT22;17996;51.056;3.656;2023-12-04T12:04:07;5.50;99.90
27544;DHT22;17996;51.056;3.656;2023-12-04T12:06:32;5.50;99.90
27544;DHT22;17996;51.056;3.656;2023-12-04T12:08:58;5.50;99.90
27544;DHT22;17996;51.056;3.656;2023-12-04T12:11:25;5.50;99.90
27544;DHT22;17996;51.056;3.656;2023-12-04T12:13:53;5.50;99.90
27544;DHT22;17996;51.056;3.656;2023-12-04T12:16:19;5.50;99.90
27544;DHT22;17996;51.056;3.656;2023-12-04T12:18:45;5.50;99.90
27544;DHT22;17996;51.056;3.656;2023-12-04T12:21:11;5.50;99.90
27544;DHT22;17996;51.056;3.656;2023-12-04T12:23:37;5.50;99.90
27544;DHT22;17996;51.056;3.656;2023-12-04T12:26:03;5.60;99.90
27544;DHT22;17996;51.056;3.656;2023-12-04T12:28:29;5.60;99.90
27544;DHT22;17996;51.056;3.656;2023-12-04T12:30:56;5.60;99.90
27544;DHT22;17996;51.056;3.656;2023-12-04T12:33:22;5.70;99.90
27544;DHT22;17996;51.056;3.656;2023-12-04T12:35:49;5.80;99.90
27544;DHT22;17996;51.056;3.656;2023-12-04T12:38:15;5.90;99.90
27544;DHT22;17996;51.056;3.656;2023-12-04T12:40:41;5.90;99.90
27544;DHT22;17996;51.056;3.656;2023-12-04T12:43:09;5.90;99.90
27544;DHT22;17996;51.056;3.656;2023-12-04T12:45:44;6.00;99.90
27544;DHT22;17996;51.056;3.656;2023-12-04T12:48:14;6.10;99.90
27544;DHT22;17996;51.056;3.656;2023-12-04T12:50:43;6.10;99.90
27544;DHT22;17996;51.056;3.656;2023-12-04T12:53:11;6.10;99.90
27544;DHT22;17996;51.056;3.656;2023-12-04T12:55:41;6.10;99.90
27544;DHT22;17996;51.056;3.656;2023-12-04T12:58:08;6.20;99.90
27544;DHT22;17996;51.056;3.656;2023-12-04T13:00:34;6.10;99.90
27544;DHT22;17996;51.056;3.656;2023-12-04T13:03:01;6.20;99.90
27544;DHT22;17996;51.056;3.656;2023-12-04T13:05:27;6.20;99.90
27544;DHT22;17996;51.056;3.656;2023-12-04T13:07:53;6.20;99.90
27544;DHT22;17996;51.056;3.656;2023-12-04T13:10:18;6.20;99.90
27544;DHT22;17996;51.056;3.656;2023-12-04T13:12:44;6.20;99.90
27544;DHT22;17996;51.056;3.656;2023-12-04T13:15:10;6.10;99.90
27544;DHT22;17996;51.056;3.656;2023-12-04T13:17:36;6.20;99.90
27544;DHT22;17996;51.056;3.656;2023-12-04T13:20:02;6.10;99.90
27544;DHT22;17996;51.056;3.656;2023-12-04T13:22:30;6.10;99.90
27544;DHT22;17996;51.056;3.656;2023-12-04T13:24:58;6.10;99.90
27544;DHT22;17996;51.056;3.656;2023-12-04T13:27:23;6.10;99.90
27544;DHT22;17996;51.056;3.656;2023-12-04T13:29:49;6.10;99.90
27544;DHT22;17996;51.056;3.656;2023-12-04T13:32:16;6.10;99.90
27544;DHT22;17996;51.056;3.656;2023-12-04T13:34:42;6.10;99.90
27544;DHT22;17996;51.056;3.656;2023-12-04T13:37:08;6.10;99.90
27544;DHT22;17996;51.056;3.656;2023-12-04T13:39:34;6.10;99.90
27544;DHT22;17996;51.056;3.656;2023-12-04T13:42:26;6.10;99.90
27544;DHT22;17996;51.056;3.656;2023-12-04T13:45:11;6.00;99.90
27544;DHT22;17996;51.056;3.656;2023-12-04T13:47:40;6.00;99.90
27544;DHT22;17996;51.056;3.656;2023-12-04T13:50:07;6.00;99.90
27544;DHT22;17996;51.056;3.656;2023-12-04T13:52:36;6.00;99.90
27544;DHT22;17996;51.056;3.656;2023-12-04T13:55:02;6.00;99.90
27544;DHT22;17996;51.056;3.656;2023-12-04T13:57:40;6.00;99.90
27544;DHT22;17996;51.056;3.656;2023-12-04T14:00:23;6.10;99.90
27544;DHT22;17996;51.056;3.656;2023-12-04T14:02:49;6.00;99.90
27544;DHT22;17996;51.056;3.656;2023-12-04T14:05:21;6.00;99.90
27544;DHT22;17996;51.056;3.656;2023-12-04T14:07:48;6.00;99.90
27544;DHT22;17996;51.056;3.656;2023-12-04T14:10:14;6.00;99.90
27544;DHT22;17996;51.056;3.656;2023-12-04T14:12:40;6.00;99.90
27544;DHT22;17996;51.056;3.656;2023-12-04T14:15:06;6.00;99.90
27544;DHT22;17996;51.056;3.656;2023-12-04T14:17:33;6.00;99.90
27544;DHT22;17996;51.056;3.656;2023-12-04T14:19:59;6.00;99.90
27544;DHT22;17996;51.056;3.656;2023-12-04T14:22:24;6.00;99.90
27544;DHT22;17996;51.056;3.656;2023-12-04T14:24:51;6.00;99.90
27544;DHT22;17996;51.056;3.656;2023-12-04T14:27:17;6.00;99.90
27544;DHT22;17996;51.056;3.656;2023-12-04T14:29:43;5.90;99.90
27544;DHT22;17996;51.056;3.656;2023-12-04T14:32:10;5.90;99.90
27544;DHT22;17996;51.056;3.656;2023-12-04T14:34:36;5.90;99.90
27544;DHT22;17996;51.056;3.656;2023-12-04T14:37:02;5.90;99.90
27544;DHT22;17996;51.056;3.656;2023-12-04T14:39:27;5.90;99.90
27544;DHT22;17996;51.056;3.656;2023-12-04T14:41:53;5.90;99.90
27544;DHT22;17996;51.056;3.656;2023-12-04T14:44:19;5.90;99.90
27544;DHT22;17996;51.056;3.656;2023-12-04T14:46:47;5.80;99.90
27544;DHT22;17996;51.056;3.656;2023-12-04T14:49:12;5.80;99.90
27544;DHT22;17996;51.056;3.656;2023-12-04T14:51:39;5.80;99.90
27544;DHT22;17996;51.056;3.656;2023-12-04T14:54:06;5.80;99.90
27544;DHT22;17996;51.056;3.656;2023-12-04T14:56:49;5.80;99.90
27544;DHT22;17996;51.056;3.656;2023-12-04T14:59:34;5.80;99.90
27544;DHT22;17996;51.056;3.656;2023-12-04T15:02:16;5.70;99.90
27544;DHT22;17996;51.056;3.656;2023-12-04T15:05:00;5.70;99.90
27544;DHT22;17996;51.056;3.656;2023-12-04T15:07:29;5.70;99.90
27544;DHT22;17996;51.056;3.656;2023-12-04T15:09:55;5.70;99.90
27544;DHT22;17996;51.056;3.656;2023-12-04T15:12:38;5.60;99.90
27544;DHT22;17996;51.056;3.656;2023-12-04T15:15:23;5.60;99.90
27544;DHT22;17996;51.056;3.656;2023-12-04T15:18:07;5.60;99.90
27544;DHT22;17996;51.056;3.656;2023-12-04T15:20:52;5.60;99.90
27544;DHT22;17996;51.056;3.656;2023-12-04T15:23:18;5.70;99.90
27544;DHT22;17996;51.056;3.656;2023-12-04T15:25:45;5.70;99.90
27544;DHT22;17996;51.056;3.656;2023-12-04T15:28:12;5.60;99.90
27544;DHT22;17996;51.056;3.656;2023-12-04T15:30:41;5.70;99.90
27544;DHT22;17996;51.056;3.656;2023-12-04T15:33:07;5.60;99.90
27544;DHT22;17996;51.056;3.656;2023-12-04T15:35:33;5.60;99.90
27544;DHT22;17996;51.056;3.656;2023-12-04T15:37:59;5.60;99.90
27544;DHT22;17996;51.056;3.656;2023-12-04T15:40:25;5.60;99.90
27544;DHT22;17996;51.056;3.656;2023-12-04T15:42:52;5.70;99.90
27544;DHT22;17996;51.056;3.656;2023-12-04T15:45:17;5.70;99.90
27544;DHT22;17996;51.056;3.656;2023-12-04T15:47:44;5.70;99.90
27544;DHT22;17996;51.056;3.656;2023-12-04T15:50:10;5.60;99.90